createdAt,value
2019-05-01T00:00:16.731Z,89.3
2019-05-01T00:02:03.043Z,90.5
2019-05-01T00:03:03.872Z,89.3
2019-05-01T00:04:03.864Z,89.3
2019-05-01T00:05:03.809Z,90
2019-05-01T00:06:03.631Z,90.7
2019-05-01T00:07:03.547Z,90.5
2019-05-01T00:08:03.342Z,91
2019-05-01T00:09:03.486Z,90.5
2019-05-01T00:10:03.438Z,90.5
2019-05-01T00:11:03.292Z,89.6
2019-05-01T00:12:03.465Z,89.6
2019-05-01T00:13:03.528Z,90.5
2019-05-01T00:14:03.502Z,90.5
2019-05-01T00:15:03.785Z,91.2
2019-05-01T00:16:03.313Z,90.5
2019-05-01T00:17:03.449Z,89.6
2019-05-01T00:18:03.775Z,89.6
2019-05-01T00:19:02.200Z,88.9
2019-05-01T00:20:03.844Z,89.1
2019-05-01T00:21:03.207Z,89.1
2019-05-01T00:22:03.086Z,90
2019-05-01T00:23:03.136Z,91.4
2019-05-01T00:24:03.420Z,91.7
2019-05-01T00:25:03.060Z,91.7
2019-05-01T00:26:03.016Z,92.6
2019-05-01T00:27:03.313Z,92.6
2019-05-01T00:28:02.986Z,95.4
2019-05-01T00:29:03.152Z,95.4
2019-05-01T00:30:03.915Z,97.5
2019-05-01T00:31:03.082Z,98.2
2019-05-01T00:32:03.019Z,99.4
2019-05-01T00:33:03.874Z,100.3
2019-05-01T00:34:03.830Z,100.3
2019-05-01T00:35:04.035Z,101
2019-05-01T00:36:03.847Z,100.5
2019-05-01T00:37:03.751Z,100.5
2019-05-01T00:38:03.575Z,100.5
2019-05-01T00:39:03.833Z,102.4
2019-05-01T00:40:03.787Z,101
2019-05-01T00:41:03.536Z,100.5
2019-05-01T00:42:03.373Z,100.3
2019-05-01T00:43:03.438Z,100.5
2019-05-01T00:44:03.450Z,101.9
2019-05-01T00:45:03.468Z,101.9
2019-05-01T00:46:04.079Z,103.6
2019-05-01T00:47:03.134Z,102.6
2019-05-01T00:48:03.807Z,102.6
2019-05-01T00:49:03.599Z,102.6
2019-05-01T00:50:03.450Z,104.7
2019-05-01T00:51:03.323Z,104.7
2019-05-01T00:52:03.200Z,105
2019-05-01T00:53:03.133Z,105
2019-05-01T00:54:03.108Z,105.9
2019-05-01T00:55:03.601Z,105.9
2019-05-01T00:56:03.305Z,105
2019-05-01T00:57:03.289Z,105.9
2019-05-01T00:58:03.451Z,105.9
2019-05-01T00:59:03.210Z,107.1
2019-05-01T01:00:03.611Z,107.1
2019-05-01T01:01:03.320Z,106.8
2019-05-01T01:02:03.324Z,106.8
2019-05-01T01:03:03.060Z,105.2
2019-05-01T01:04:02.831Z,105.4
2019-05-01T01:05:03.054Z,104.5
2019-05-01T01:06:03.440Z,104.5
2019-05-01T01:07:02.918Z,102.6
2019-05-01T01:08:03.100Z,103.3
2019-05-01T01:09:03.089Z,103.1
2019-05-01T01:10:03.160Z,102.6
2019-05-01T01:11:03.858Z,100.8
2019-05-01T01:12:03.743Z,102.6
2019-05-01T01:13:02.978Z,102.6
2019-05-01T01:14:03.564Z,103.6
2019-05-01T01:15:03.161Z,103.6
2019-05-01T01:16:04.336Z,103.1
2019-05-01T01:17:03.820Z,103.1
2019-05-01T01:18:03.606Z,104.5
2019-05-01T01:19:03.127Z,104.5
2019-05-01T01:20:03.886Z,104.7
2019-05-01T01:21:03.711Z,104.7
2019-05-01T01:22:03.848Z,105.4
2019-05-01T01:23:03.585Z,104.5
2019-05-01T01:24:03.827Z,104.5
2019-05-01T01:25:03.459Z,104.5
2019-05-01T01:26:03.622Z,104.5
2019-05-01T01:27:03.380Z,104
2019-05-01T01:28:03.401Z,102.4
2019-05-01T01:29:03.315Z,100.1
2019-05-01T01:30:03.723Z,100.1
2019-05-01T01:31:03.400Z,98
2019-05-01T01:32:03.554Z,97
2019-05-01T01:33:03.559Z,97
2019-05-01T01:34:03.402Z,97.5
2019-05-01T01:35:03.216Z,96.8
2019-05-01T01:36:03.264Z,96.8
2019-05-01T01:37:03.178Z,96.6
2019-05-01T01:38:02.981Z,97.3
2019-05-01T01:39:02.938Z,98.4
2019-05-01T01:40:02.970Z,99.4
2019-05-01T01:41:03.012Z,99.4
2019-05-01T01:42:02.796Z,99.6
2019-05-01T01:43:02.735Z,99.6
2019-05-01T01:44:03.824Z,99.6
2019-05-01T01:45:03.724Z,98.4
2019-05-01T01:46:03.815Z,97.3
2019-05-01T01:47:03.639Z,97
2019-05-01T01:48:03.853Z,97.7
2019-05-01T01:49:03.366Z,98
2019-05-01T01:50:03.941Z,98
2019-05-01T01:51:03.363Z,98.2
2019-05-01T01:52:03.443Z,96.6
2019-05-01T01:53:03.222Z,95.9
2019-05-01T01:54:03.167Z,95.9
2019-05-01T01:55:03.541Z,98.2
2019-05-01T01:56:03.141Z,97.7
2019-05-01T01:57:03.504Z,95.4
2019-05-01T01:58:03.174Z,95.4
2019-05-01T01:59:03.096Z,94.2
2019-05-01T02:00:03.421Z,94
2019-05-01T02:01:10.134Z,95.4
2019-05-01T02:02:03.108Z,96.8
2019-05-01T02:03:02.806Z,97
2019-05-01T02:04:02.825Z,96.8
2019-05-01T02:05:03.026Z,96.8
2019-05-01T02:06:03.844Z,98.2
2019-05-01T02:07:03.691Z,98.2
2019-05-01T02:08:02.901Z,98.2
2019-05-01T02:09:03.695Z,98.2
2019-05-01T02:10:04.044Z,97
2019-05-01T02:11:03.484Z,98.7
2019-05-01T02:12:03.900Z,98.7
2019-05-01T02:13:03.519Z,98.4
2019-05-01T02:14:03.577Z,98.4
2019-05-01T02:15:03.593Z,99.6
2019-05-01T02:16:03.229Z,100.1
2019-05-01T02:17:03.643Z,99.4
2019-05-01T02:18:03.530Z,99.4
2019-05-01T02:19:03.584Z,98.2
2019-05-01T02:20:03.309Z,98.2
2019-05-01T02:21:03.255Z,98.7
2019-05-01T02:22:03.328Z,98.7
2019-05-01T02:23:03.463Z,98.7
2019-05-01T02:24:03.286Z,99.1
2019-05-01T02:25:03.505Z,100.1
2019-05-01T02:26:03.209Z,100.5
2019-05-01T02:27:01.776Z,100.8
2019-05-01T02:28:03.021Z,100.8
2019-05-01T02:29:02.980Z,100.8
2019-05-01T02:30:04.102Z,101.7
2019-05-01T02:31:03.024Z,101.7
2019-05-01T02:32:02.813Z,102.9
2019-05-01T02:33:02.994Z,102.9
2019-05-01T02:34:03.105Z,100.5
2019-05-01T02:35:03.005Z,100.5
2019-05-01T02:36:03.724Z,100.8
2019-05-01T02:37:03.771Z,100.3
2019-05-01T02:38:03.660Z,99.6
2019-05-01T02:39:03.820Z,98.9
2019-05-01T02:40:03.523Z,98.2
2019-05-01T02:41:03.745Z,97.5
2019-05-01T02:42:03.573Z,97.5
2019-05-01T02:43:03.772Z,98
2019-05-01T02:44:03.631Z,98.2
2019-05-01T02:45:03.803Z,98.7
2019-05-01T02:46:03.847Z,98.7
2019-05-01T02:47:03.466Z,99.4
2019-05-01T02:48:03.492Z,99.6
2019-05-01T02:49:03.510Z,101.5
2019-05-01T02:50:03.586Z,101.2
2019-05-01T02:51:03.334Z,101.2
2019-05-01T02:52:03.094Z,101.2
2019-05-01T02:53:03.435Z,101.7
2019-05-01T02:54:03.373Z,102.4
2019-05-01T02:55:03.183Z,101.7
2019-05-01T02:56:03.282Z,101.7
2019-05-01T02:57:03.221Z,101.7
2019-05-01T02:58:03.684Z,103.3
2019-05-01T02:59:03.249Z,103.1
2019-05-01T03:00:03.636Z,103.3
2019-05-01T03:01:03.330Z,101.9
2019-05-01T03:02:03.546Z,101.9
2019-05-01T03:03:03.145Z,100.5
2019-05-01T03:04:03.071Z,100.5
2019-05-01T03:05:03.117Z,101.9
2019-05-01T03:06:03.103Z,101.9
2019-05-01T03:07:03.311Z,101.2
2019-05-01T03:08:03.699Z,101.5
2019-05-01T03:09:03.314Z,100.3
2019-05-01T03:10:03.227Z,101.7
2019-05-01T03:11:02.816Z,100.5
2019-05-01T03:12:03.178Z,99.8
2019-05-01T03:13:03.830Z,99.8
2019-05-01T03:14:03.042Z,98.9
2019-05-01T03:15:03.187Z,97.7
2019-05-01T03:16:02.963Z,98.7
2019-05-01T03:17:02.751Z,98.7
2019-05-01T03:18:03.218Z,101.2
2019-05-01T03:19:03.777Z,100.3
2019-05-01T03:20:03.882Z,100.5
2019-05-01T03:21:03.762Z,99.1
2019-05-01T03:22:03.680Z,98.7
2019-05-01T03:23:03.717Z,98.2
2019-05-01T03:24:03.161Z,97.5
2019-05-01T03:25:03.807Z,95.6
2019-05-01T03:26:03.517Z,95.6
2019-05-01T03:27:03.562Z,96.3
2019-05-01T03:28:03.462Z,96.3
2019-05-01T03:29:03.528Z,95.2
2019-05-01T03:30:03.509Z,95.2
2019-05-01T03:31:03.502Z,94.9
2019-05-01T03:32:20.298Z,95.4
2019-05-01T03:34:03.098Z,96.8
2019-05-01T03:35:03.120Z,98
2019-05-01T03:36:03.245Z,97.7
2019-05-01T03:37:02.940Z,97.7
2019-05-01T03:38:03.103Z,97
2019-05-01T03:39:03.632Z,96.3
2019-05-01T03:40:02.923Z,96.8
2019-05-01T03:41:04.533Z,96.8
2019-05-01T03:42:03.009Z,96.8
2019-05-01T03:43:03.722Z,96.8
2019-05-01T03:44:03.727Z,96.6
2019-05-01T03:45:03.846Z,96.6
2019-05-01T03:46:03.681Z,96.6
2019-05-01T03:47:03.632Z,96.3
2019-05-01T03:48:03.665Z,95.6
2019-05-01T03:49:03.653Z,94.2
2019-05-01T03:50:03.414Z,94.2
2019-05-01T03:51:03.532Z,94.7
2019-05-01T03:52:03.544Z,94.7
2019-05-01T03:53:03.620Z,94.2
2019-05-01T03:54:03.314Z,94.2
2019-05-01T03:55:03.379Z,92.4
2019-05-01T03:56:03.188Z,93.3
2019-05-01T03:57:03.170Z,94
2019-05-01T03:58:03.424Z,94
2019-05-01T03:59:03.156Z,94.2
2019-05-01T04:00:03.315Z,94.5
2019-05-01T04:01:02.930Z,94.2
2019-05-01T04:02:02.956Z,94.9
2019-05-01T04:03:03.882Z,95.4
2019-05-01T04:04:03.061Z,96.1
2019-05-01T04:05:03.302Z,96.1
2019-05-01T04:06:03.195Z,96.8
2019-05-01T04:07:03.047Z,98
2019-05-01T04:08:03.917Z,98.4
2019-05-01T04:09:03.181Z,98.4
2019-05-01T04:10:03.887Z,101
2019-05-01T04:11:03.468Z,101.7
2019-05-01T04:12:03.578Z,100.8
2019-05-01T04:13:03.845Z,100.1
2019-05-01T04:14:03.717Z,100.5
2019-05-01T04:15:03.451Z,101
2019-05-01T04:16:03.764Z,99.6
2019-05-01T04:17:03.628Z,98.4
2019-05-01T04:18:03.690Z,98.4
2019-05-01T04:19:03.492Z,99.6
2019-05-01T04:20:03.550Z,99.6
2019-05-01T04:21:03.357Z,100.3
2019-05-01T04:22:03.466Z,100.3
2019-05-01T04:23:03.392Z,100.5
2019-05-01T04:24:03.408Z,100.5
2019-05-01T04:25:03.463Z,101.5
2019-05-01T04:26:03.193Z,100.5
2019-05-01T04:27:02.874Z,101.9
2019-05-01T04:28:03.366Z,102.9
2019-05-01T04:29:03.282Z,102.9
2019-05-01T04:30:03.037Z,103.6
2019-05-01T04:31:03.854Z,104
2019-05-01T04:32:02.877Z,103.8
2019-05-01T04:33:03.081Z,103.8
2019-05-01T04:34:04.217Z,104
2019-05-01T04:35:03.896Z,103.8
2019-05-01T04:36:04.014Z,103.6
2019-05-01T04:37:03.753Z,103.6
2019-05-01T04:38:03.574Z,103.8
2019-05-01T04:39:03.998Z,105
2019-05-01T04:40:03.659Z,105
2019-05-01T04:41:03.820Z,105
2019-05-01T04:42:03.682Z,105
2019-05-01T04:43:03.862Z,105.7
2019-05-01T04:44:03.419Z,105
2019-05-01T04:45:03.716Z,104.3
2019-05-01T04:46:03.342Z,103.3
2019-05-01T04:47:03.498Z,103.3
2019-05-01T04:48:03.421Z,103.6
2019-05-01T04:49:03.303Z,103.6
2019-05-01T04:50:03.203Z,103.3
2019-05-01T04:51:03.263Z,103.8
2019-05-01T04:52:03.249Z,104
2019-05-01T04:53:03.120Z,104
2019-05-01T04:54:03.338Z,105.7
2019-05-01T04:55:03.216Z,106.1
2019-05-01T04:56:03.567Z,105.2
2019-05-01T04:57:03.423Z,105.2
2019-05-01T04:58:02.097Z,105.2
2019-05-01T04:59:03.454Z,104.5
2019-05-01T05:00:03.408Z,104.5
2019-05-01T05:01:03.179Z,103.8
2019-05-01T05:02:03.110Z,103.1
2019-05-01T05:03:05.754Z,102.6
2019-05-01T05:04:03.088Z,102.6
2019-05-01T05:05:03.128Z,101.9
2019-05-01T05:06:03.835Z,100.8
2019-05-01T05:07:03.316Z,100.5
2019-05-01T05:08:03.815Z,99.1
2019-05-01T05:09:02.929Z,98.2
2019-05-01T05:10:03.126Z,98.2
2019-05-01T05:11:03.044Z,98.2
2019-05-01T05:12:04.029Z,99.8
2019-05-01T05:13:03.650Z,99.8
2019-05-01T05:14:03.851Z,100.8
2019-05-01T05:15:04.012Z,100.8
2019-05-01T05:16:03.649Z,101.5
2019-05-01T05:17:03.615Z,102.4
2019-05-01T05:18:03.519Z,101.7
2019-05-01T05:19:03.502Z,101.5
2019-05-01T05:20:03.531Z,101.5
2019-05-01T05:21:03.172Z,100.5
2019-05-01T05:22:03.500Z,100.3
2019-05-01T05:23:03.432Z,99.1
2019-05-01T05:24:03.344Z,99.1
2019-05-01T05:25:03.602Z,99.1
2019-05-01T05:26:03.053Z,98.7
2019-05-01T05:27:03.370Z,96.6
2019-05-01T05:28:02.952Z,96.1
2019-05-01T05:29:03.010Z,95.4
2019-05-01T05:30:03.128Z,93.3
2019-05-01T05:31:03.497Z,93.3
2019-05-01T05:32:03.111Z,92.6
2019-05-01T05:33:03.337Z,92.8
2019-05-01T05:34:03.237Z,92.8
2019-05-01T05:35:03.391Z,92.8
2019-05-01T05:36:02.988Z,93.8
2019-05-01T05:37:03.875Z,94.2
2019-05-01T05:38:03.060Z,94.9
2019-05-01T05:39:03.786Z,94.5
2019-05-01T05:40:03.903Z,93.3
2019-05-01T05:41:03.890Z,93.5
2019-05-01T05:42:03.308Z,93.5
2019-05-01T05:43:03.676Z,92.4
2019-05-01T05:44:03.000Z,92.4
2019-05-01T05:45:03.973Z,92.1
2019-05-01T05:46:03.739Z,93.1
2019-05-01T05:47:03.813Z,94
2019-05-01T05:48:03.781Z,93.1
2019-05-01T05:49:03.709Z,92.6
2019-05-01T05:50:03.838Z,92.6
2019-05-01T05:51:03.578Z,92.6
2019-05-01T05:52:03.562Z,93.1
2019-05-01T05:53:03.471Z,93.1
2019-05-01T05:54:03.487Z,93.3
2019-05-01T05:55:03.824Z,93.3
2019-05-01T05:56:03.146Z,94
2019-05-01T05:57:03.231Z,94
2019-05-01T05:58:03.055Z,93.5
2019-05-01T05:59:03.105Z,94
2019-05-01T06:00:03.184Z,94.9
2019-05-01T06:01:03.169Z,94.5
2019-05-01T06:02:03.366Z,94.5
2019-05-01T06:03:03.979Z,95.6
2019-05-01T06:04:03.028Z,96.1
2019-05-01T06:05:02.933Z,95.4
2019-05-01T06:06:03.304Z,95.4
2019-05-01T06:07:03.708Z,94.2
2019-05-01T06:08:03.733Z,94.9
2019-05-01T06:09:03.857Z,96.6
2019-05-01T06:10:03.762Z,95.4
2019-05-01T06:11:03.646Z,94.5
2019-05-01T06:12:10.316Z,93.5
2019-05-01T06:13:03.583Z,93.5
2019-05-01T06:14:03.738Z,92.1
2019-05-01T06:15:07.795Z,92.1
2019-05-01T06:16:03.691Z,91.2
2019-05-01T06:17:03.525Z,91.2
2019-05-01T06:18:06.102Z,91.4
2019-05-01T06:19:03.275Z,91.4
2019-05-01T06:20:03.102Z,92.8
2019-05-01T06:21:04.189Z,93.8
2019-05-01T06:22:11.825Z,96.1
2019-05-01T06:23:03.402Z,96.3
2019-05-01T06:24:07.174Z,96.6
2019-05-01T06:25:03.404Z,94.9
2019-05-01T06:26:03.179Z,94.9
2019-05-01T06:27:03.221Z,95.9
2019-05-01T06:28:02.976Z,96.3
2019-05-01T06:29:03.729Z,95.9
2019-05-01T06:30:12.711Z,97.3
2019-05-01T06:31:03.750Z,97.7
2019-05-01T06:32:03.768Z,97.3
2019-05-01T06:33:11.417Z,97.3
2019-05-01T06:34:03.720Z,97.5
2019-05-01T06:35:04.865Z,97.5
2019-05-01T06:36:03.695Z,96.6
2019-05-01T06:37:03.578Z,96.6
2019-05-01T06:38:03.704Z,94.5
2019-05-01T06:39:13.499Z,95.4
2019-05-01T06:40:03.599Z,96.6
2019-05-01T06:41:03.531Z,96.3
2019-05-01T06:42:02.790Z,94.9
2019-05-01T06:43:03.246Z,95.6
2019-05-01T06:44:07.765Z,96.8
2019-05-01T06:45:03.448Z,97
2019-05-01T06:46:03.100Z,97
2019-05-01T06:47:05.353Z,96.8
2019-05-01T06:48:02.911Z,96.8
2019-05-01T06:49:03.171Z,98.7
2019-05-01T06:50:07.775Z,98.7
2019-05-01T06:51:02.857Z,99.6
2019-05-01T06:52:03.038Z,98.2
2019-05-01T06:53:06.851Z,98.9
2019-05-01T06:54:03.062Z,98.4
2019-05-01T06:55:03.709Z,98.4
2019-05-01T06:56:03.644Z,97.7
2019-05-01T06:57:03.757Z,97.7
2019-05-01T06:58:03.548Z,98.9
2019-05-01T06:59:03.663Z,99.6
2019-05-01T07:00:09.626Z,98.9
2019-05-01T07:01:03.516Z,98.9
2019-05-01T07:02:03.880Z,99.8
2019-05-01T07:03:11.929Z,100.1
2019-05-01T07:04:04.331Z,100.5
2019-05-01T07:05:03.806Z,101.7
2019-05-01T07:06:14.806Z,101.7
2019-05-01T07:07:25.935Z,101.5
2019-05-01T07:09:28.263Z,99.8
2019-05-01T07:11:03.314Z,101
2019-05-01T07:12:03.308Z,100.5
2019-05-01T07:13:06.795Z,100.8
2019-05-01T07:14:03.147Z,99.6
2019-05-01T07:15:03.618Z,99.6
2019-05-01T07:16:03.547Z,99.6
2019-05-01T07:17:03.420Z,99.6
2019-05-01T07:18:03.117Z,99.6
2019-05-01T07:19:07.153Z,99.6
2019-05-01T07:20:03.180Z,98.7
2019-05-01T07:21:03.413Z,98.7
2019-05-01T07:22:07.610Z,97.3
2019-05-01T07:23:02.902Z,98
2019-05-01T07:24:03.001Z,98
2019-05-01T07:25:05.435Z,99.1
2019-05-01T07:26:03.314Z,99.1
2019-05-01T07:27:03.834Z,99.4
2019-05-01T07:28:02.919Z,99.4
2019-05-01T07:29:11.272Z,98.7
2019-05-01T07:30:02.841Z,98.9
2019-05-01T07:31:05.749Z,99.1
2019-05-01T07:32:07.715Z,99.1
2019-05-01T07:33:03.701Z,98.4
2019-05-01T07:34:17.240Z,98.4
2019-05-01T07:36:16.664Z,100.3
2019-05-01T07:37:03.556Z,101.5
2019-05-01T07:38:03.677Z,101.2
2019-05-01T07:39:03.694Z,101.2
2019-05-01T07:40:03.380Z,99.8
2019-05-01T07:41:05.400Z,99.4
2019-05-01T07:42:03.625Z,100.3
2019-05-01T07:43:03.332Z,99.8
2019-05-01T07:44:03.039Z,99.8
2019-05-01T07:45:09.891Z,99.1
2019-05-01T07:46:03.355Z,99.1
2019-05-01T07:47:03.459Z,98.2
2019-05-01T07:48:07.000Z,98.2
2019-05-01T07:49:03.345Z,97.7
2019-05-01T07:50:03.651Z,97.7
2019-05-01T07:51:09.086Z,96.6
2019-05-01T07:52:03.587Z,96.6
2019-05-01T07:53:03.307Z,96.3
2019-05-01T07:54:09.164Z,95.9
2019-05-01T07:55:03.134Z,95.9
2019-05-01T07:56:03.414Z,96.1
2019-05-01T07:57:05.082Z,97.3
2019-05-01T07:58:03.119Z,97
2019-05-01T07:59:02.847Z,97
2019-05-01T08:00:08.757Z,98.2
2019-05-01T08:01:03.915Z,99.4
2019-05-01T08:02:03.777Z,98.9
2019-05-01T08:03:08.583Z,97.7
2019-05-01T08:04:02.534Z,97.5
2019-05-01T08:05:11.903Z,97
2019-05-01T08:06:03.274Z,97
2019-05-01T08:07:03.828Z,98
2019-05-01T08:08:09.771Z,98.7
2019-05-01T08:09:03.811Z,97.5
2019-05-01T08:10:03.804Z,97.5
2019-05-01T08:11:10.568Z,96.8
2019-05-01T08:12:03.687Z,97.3
2019-05-01T08:13:03.467Z,97.3
2019-05-01T08:14:18.690Z,97
2019-05-01T08:15:03.750Z,97
2019-05-01T08:16:08.997Z,98.7
2019-05-01T08:17:03.462Z,98.7
2019-05-01T08:18:03.504Z,101.2
2019-05-01T08:19:06.090Z,101.2
2019-05-01T08:20:03.455Z,101.9
2019-05-01T08:21:03.346Z,101.9
2019-05-01T08:22:03.341Z,101.2
2019-05-01T08:23:03.505Z,101.2
2019-05-01T08:24:03.308Z,98.9
2019-05-01T08:25:02.936Z,99.4
2019-05-01T08:26:10.410Z,99.4
2019-05-01T08:27:03.264Z,99.4
2019-05-01T08:28:03.783Z,99.4
2019-05-01T08:29:08.386Z,99.1
2019-05-01T08:30:03.084Z,99.1
2019-05-01T08:31:03.217Z,97.5
2019-05-01T08:32:04.862Z,97.3
2019-05-01T08:33:03.818Z,97.3
2019-05-01T08:34:03.727Z,97
2019-05-01T08:35:03.755Z,96.1
2019-05-01T08:36:13.629Z,96.1
2019-05-01T08:37:06.840Z,96.1
2019-05-01T08:38:03.585Z,97.3
2019-05-01T08:39:14.034Z,97.3
2019-05-01T08:41:03.618Z,96.1
2019-05-01T08:42:08.348Z,95.2
2019-05-01T08:43:03.517Z,96.3
2019-05-01T08:44:03.702Z,96.1
2019-05-01T08:45:07.086Z,97.3
2019-05-01T08:46:03.280Z,97.3
2019-05-01T08:47:03.082Z,99.6
2019-05-01T08:48:03.278Z,99.6
2019-05-01T08:49:12.752Z,101
2019-05-01T08:50:03.528Z,101
2019-05-01T08:51:03.119Z,100.5
2019-05-01T08:52:14.143Z,100.5
2019-05-01T08:54:03.489Z,101
2019-05-01T08:55:11.021Z,100.1
2019-05-01T08:56:03.021Z,100.1
2019-05-01T08:57:03.160Z,100.1
2019-05-01T08:58:02.980Z,98.4
2019-05-01T08:59:03.171Z,98.4
2019-05-01T09:00:04.025Z,96.8
2019-05-01T09:01:02.977Z,96.8
2019-05-01T09:02:10.132Z,95.4
2019-05-01T09:03:13.774Z,94.9
2019-05-01T09:04:13.698Z,95.9
2019-05-01T09:05:34.143Z,95.9
2019-05-01T09:06:03.548Z,96.6
2019-05-01T09:07:03.699Z,96.3
2019-05-01T09:08:03.437Z,96.3
2019-05-01T09:09:10.245Z,97.5
2019-05-01T09:10:03.345Z,98.4
2019-05-01T09:11:03.401Z,97.3
2019-05-01T09:12:13.714Z,97.3
2019-05-01T09:14:03.662Z,97.3
2019-05-01T09:15:14.860Z,97.3
2019-05-01T09:16:03.561Z,95.6
2019-05-01T09:17:03.231Z,93.3
2019-05-01T09:18:03.396Z,92.6
2019-05-01T09:19:03.437Z,92.6
2019-05-01T09:20:03.569Z,91.9
2019-05-01T09:21:03.514Z,91.9
2019-05-01T09:22:03.361Z,91.7
2019-05-01T09:23:03.477Z,91.7
2019-05-01T09:24:02.959Z,91.7
2019-05-01T09:25:03.848Z,91.9
2019-05-01T09:26:16.477Z,92.6
2019-05-01T09:28:06.196Z,93.8
2019-05-01T09:29:03.091Z,96.3
2019-05-01T09:30:04.776Z,96.3
2019-05-01T09:31:03.721Z,98.7
2019-05-01T09:32:12.074Z,98.7
2019-05-01T09:33:03.145Z,98.7
2019-05-01T09:34:03.671Z,98.2
2019-05-01T09:35:19.920Z,97.5
2019-05-01T09:37:03.302Z,95.4
2019-05-01T09:38:03.682Z,95.4
2019-05-01T09:39:03.913Z,95.4
2019-05-01T09:40:10.552Z,95.9
2019-05-01T09:41:03.560Z,96.3
2019-05-01T09:42:06.943Z,96.1
2019-05-01T09:43:03.682Z,96.1
2019-05-01T09:44:12.242Z,95.4
2019-05-01T09:45:03.479Z,94.7
2019-05-01T09:46:03.586Z,95.2
2019-05-01T09:47:03.438Z,94.2
2019-05-01T09:48:02.295Z,92.4
2019-05-01T09:49:03.571Z,91.7
2019-05-01T09:50:03.580Z,91.7
2019-05-01T09:51:06.868Z,92.1
2019-05-01T09:52:03.115Z,92.1
2019-05-01T09:53:03.221Z,92.6
2019-05-01T09:54:11.122Z,92.6
2019-05-01T09:55:03.095Z,92.8
2019-05-01T09:56:09.313Z,92.8
2019-05-01T09:57:03.246Z,93.3
2019-05-01T09:58:03.194Z,93.3
2019-05-01T09:59:02.693Z,94.7
2019-05-01T10:00:02.757Z,94.7
2019-05-01T10:01:03.272Z,94.7
2019-05-01T10:02:09.302Z,95.9
2019-05-01T10:03:03.169Z,95.9
2019-05-01T10:04:05.897Z,96.1
2019-05-01T10:05:08.178Z,95.9
2019-05-01T10:06:03.846Z,94.5
2019-05-01T10:07:03.453Z,95.4
2019-05-01T10:08:05.770Z,95.9
2019-05-01T10:09:03.726Z,94.9
2019-05-01T10:10:03.591Z,95.6
2019-05-01T10:11:07.144Z,96.1
2019-05-01T10:12:03.480Z,97.3
2019-05-01T10:13:03.319Z,97.7
2019-05-01T10:14:04.417Z,97.7
2019-05-01T10:15:03.868Z,99.4
2019-05-01T10:16:03.329Z,99.1
2019-05-01T10:17:03.464Z,98.9
2019-05-01T10:18:03.369Z,98.9
2019-05-01T10:19:03.337Z,97.5
2019-05-01T10:20:02.951Z,97.3
2019-05-01T10:21:03.066Z,97.3
2019-05-01T10:22:03.990Z,97.3
2019-05-01T10:23:02.862Z,97.3
2019-05-01T10:24:02.956Z,98.4
2019-05-01T10:25:02.881Z,98.4
2019-05-01T10:26:03.144Z,97.7
2019-05-01T10:27:02.889Z,97.7
2019-05-01T10:28:17.842Z,95.9
2019-05-01T10:30:03.646Z,94.7
2019-05-01T10:31:13.311Z,94.7
2019-05-01T10:32:03.335Z,94.2
2019-05-01T10:33:03.470Z,95.4
2019-05-01T10:34:09.316Z,95.4
2019-05-01T10:35:03.399Z,97.3
2019-05-01T10:36:03.468Z,97.7
2019-05-01T10:37:03.732Z,99.1
2019-05-01T10:38:10.960Z,99.1
2019-05-01T10:39:03.440Z,98.7
2019-05-01T10:40:03.660Z,100.8
2019-05-01T10:41:10.774Z,99.6
2019-05-01T10:42:03.215Z,100.3
2019-05-01T10:43:03.051Z,101.7
2019-05-01T10:44:03.266Z,102.4
2019-05-01T10:45:03.475Z,102.4
2019-05-01T10:46:02.695Z,101.7
2019-05-01T10:47:02.964Z,101.7
2019-05-01T10:48:03.020Z,103.1
2019-05-01T10:49:02.949Z,103.1
2019-05-01T10:50:04.156Z,103.1
2019-05-01T10:51:03.656Z,103.3
2019-05-01T10:52:14.872Z,103.3
2019-05-01T10:54:03.712Z,105.4
2019-05-01T10:55:03.882Z,105.9
2019-05-01T10:56:03.658Z,107.1
2019-05-01T10:57:04.819Z,105.9
2019-05-01T10:58:04.090Z,105.9
2019-05-01T10:59:03.472Z,105.2
2019-05-01T11:00:03.892Z,105.4
2019-05-01T11:01:03.638Z,105.7
2019-05-01T11:02:03.627Z,104.5
2019-05-01T11:03:03.322Z,103.6
2019-05-01T11:04:03.455Z,102.9
2019-05-01T11:05:03.517Z,102.9
2019-05-01T11:06:02.981Z,102.9
2019-05-01T11:07:03.506Z,103.3
2019-05-01T11:08:03.345Z,102.9
2019-05-01T11:09:03.436Z,102.9
2019-05-01T11:10:03.004Z,101
2019-05-01T11:11:03.129Z,101.2
2019-05-01T11:12:03.486Z,100.1
2019-05-01T11:13:03.268Z,99.6
2019-05-01T11:14:03.944Z,98.7
2019-05-01T11:15:04.056Z,98.4
2019-05-01T11:16:03.101Z,98.4
2019-05-01T11:17:03.520Z,98.2
2019-05-01T11:18:03.190Z,98.2
2019-05-01T11:19:03.865Z,99.8
2019-05-01T11:20:03.040Z,99.8
2019-05-01T11:21:03.734Z,101.2
2019-05-01T11:22:03.714Z,101.2
2019-05-01T11:23:03.622Z,103.1
2019-05-01T11:24:03.649Z,103.8
2019-05-01T11:25:03.771Z,103.1
2019-05-01T11:26:03.367Z,103.3
2019-05-01T11:27:03.427Z,102.4
2019-05-01T11:28:03.328Z,103.1
2019-05-01T11:29:03.442Z,103.1
2019-05-01T11:30:03.323Z,103.8
2019-05-01T11:31:03.037Z,102.9
2019-05-01T11:32:03.251Z,103.3
2019-05-01T11:33:03.611Z,103.3
2019-05-01T11:34:03.095Z,101.5
2019-05-01T11:35:03.236Z,102.6
2019-05-01T11:36:10.179Z,101.2
2019-05-01T11:37:03.113Z,101.2
2019-05-01T11:38:04.364Z,99.1
2019-05-01T11:39:03.865Z,100.1
2019-05-01T11:40:03.270Z,100.1
2019-05-01T11:41:03.706Z,100.3
2019-05-01T11:42:03.093Z,100.3
2019-05-01T11:43:03.712Z,97
2019-05-01T11:44:03.155Z,97
2019-05-01T11:45:03.768Z,95.2
2019-05-01T11:46:03.911Z,95.2
2019-05-01T11:47:03.847Z,95.2
2019-05-01T11:48:03.501Z,93.8
2019-05-01T11:49:03.940Z,93.8
2019-05-01T11:50:03.775Z,92.8
2019-05-01T11:51:03.762Z,92.8
2019-05-01T11:52:03.415Z,90.5
2019-05-01T11:53:03.795Z,90.5
2019-05-01T11:54:03.182Z,87.9
2019-05-01T11:55:03.707Z,88.6
2019-05-01T11:56:03.556Z,88.6
2019-05-01T11:57:03.464Z,88.6
2019-05-01T11:58:03.559Z,87.9
2019-05-01T11:59:03.294Z,87.7
2019-05-01T12:00:03.325Z,87.7
2019-05-01T12:01:03.360Z,87
2019-05-01T12:02:03.691Z,87.7
2019-05-01T12:03:03.117Z,88.4
2019-05-01T12:04:03.051Z,88.4
2019-05-01T12:05:03.133Z,89.1
2019-05-01T12:06:03.072Z,89.1
2019-05-01T12:07:02.983Z,86.8
2019-05-01T12:08:03.280Z,86.8
2019-05-01T12:09:02.999Z,86.5
2019-05-01T12:10:03.354Z,87.2
2019-05-01T12:11:03.225Z,87.2
2019-05-01T12:12:03.252Z,88.2
2019-05-01T12:13:03.432Z,88.2
2019-05-01T12:14:03.247Z,88.6
2019-05-01T12:15:03.526Z,88.6
2019-05-01T12:16:03.303Z,88.2
2019-05-01T12:17:03.595Z,88.2
2019-05-01T12:18:03.127Z,89.6
2019-05-01T12:19:02.931Z,88.2
2019-05-01T12:20:03.107Z,88.2
2019-05-01T12:21:03.010Z,87
2019-05-01T12:22:02.729Z,87
2019-05-01T12:23:03.422Z,86.3
2019-05-01T12:24:03.151Z,86.3
2019-05-01T12:25:03.301Z,85.4
2019-05-01T12:26:03.185Z,84.7
2019-05-01T12:27:02.807Z,85.6
2019-05-01T12:28:03.151Z,85.6
2019-05-01T12:29:03.933Z,84.7
2019-05-01T12:30:03.039Z,85.8
2019-05-01T12:31:03.883Z,86.3
2019-05-01T12:32:03.868Z,86.5
2019-05-01T12:33:03.415Z,86.1
2019-05-01T12:34:03.747Z,87.2
2019-05-01T12:35:03.817Z,87.2
2019-05-01T12:36:03.597Z,88.4
2019-05-01T12:37:03.580Z,90
2019-05-01T12:38:03.688Z,90
2019-05-01T12:39:03.780Z,90
2019-05-01T12:40:03.450Z,90
2019-05-01T12:41:03.550Z,89.8
2019-05-01T12:42:03.272Z,89.8
2019-05-01T12:43:03.327Z,91
2019-05-01T12:44:03.267Z,91
2019-05-01T12:45:03.274Z,91.4
2019-05-01T12:46:03.308Z,91.4
2019-05-01T12:47:03.276Z,88.9
2019-05-01T12:48:03.505Z,88.9
2019-05-01T12:49:03.422Z,89.6
2019-05-01T12:50:03.366Z,90
2019-05-01T12:51:03.042Z,90.3
2019-05-01T12:52:11.116Z,90.5
2019-05-01T12:53:03.120Z,90.5
2019-05-01T12:54:03.939Z,89.8
2019-05-01T12:55:03.148Z,89.8
2019-05-01T12:56:03.427Z,88.4
2019-05-01T12:57:03.763Z,88.2
2019-05-01T12:58:02.953Z,88.4
2019-05-01T12:59:03.909Z,88.4
2019-05-01T13:00:09.585Z,88.4
2019-05-01T13:01:03.652Z,89.1
2019-05-01T13:02:03.937Z,89.1
2019-05-01T13:03:03.591Z,89.3
2019-05-01T13:04:03.825Z,89.3
2019-05-01T13:05:03.871Z,88.4
2019-05-01T13:06:03.105Z,88.4
2019-05-01T13:07:03.440Z,90.5
2019-05-01T13:08:02.950Z,92.8
2019-05-01T13:09:03.596Z,92.8
2019-05-01T13:10:03.433Z,92.8
2019-05-01T13:11:03.167Z,93.3
2019-05-01T13:12:03.340Z,93.1
2019-05-01T13:13:03.447Z,93.1
2019-05-01T13:14:03.244Z,92.8
2019-05-01T13:15:03.564Z,92.8
2019-05-01T13:16:03.114Z,91.9
2019-05-01T13:17:03.592Z,91.9
2019-05-01T13:18:03.165Z,91
2019-05-01T13:19:03.109Z,91
2019-05-01T13:20:03.891Z,93.1
2019-05-01T13:21:02.943Z,94.5
2019-05-01T13:22:05.613Z,95.6
2019-05-01T13:23:03.828Z,95.9
2019-05-01T13:24:03.019Z,95.9
2019-05-01T13:25:03.905Z,96.3
2019-05-01T13:26:03.064Z,96.3
2019-05-01T13:27:03.843Z,96.6